Aviation Digital Data Service (ADDS)

Output produced by METARs form (2037 UTC 21 July 2017)
found at http://www.aviationweather.gov/adds/metars/
 
OTBD 212000Z 01003KT CAVOK 34/25 Q0997 NOSIG
TAF OTBD 211700Z 2118/2224 VRB02KT 8000 NSC 
     PROB30 
     TEMPO 2118/2204 5000 HZ 
     BECMG 2208/2210 12010KT 
     BECMG 2218/2220 VRB02KT
       
OTBH 211958Z 03003KT 9000 HZ CLR 36/15 A2946 RMK AO2A SLP976 T03620149
TAF OTBH 211500Z 2115/2221 VRB06KT 9000 HZ SKC QNH2939INS 
     BECMG 2205/2206 33009KT 9000 HZ SKC QNH2936INS 
     BECMG 2215/2216 VRB06KT 9000 HZ SKC QNH2938INS TX47/2211Z TN31/2201Z